Time;durP1;ratioP1;P1;durP2;ratioP2;P2;SDS_P1;SDS_P2;PMS_P1;PMS_P2;Temp;Humidity;BMP_temperature;BMP_pressure;BME280_temperature;BME280_humidity;BME280_pressure;Samples;Min_cycle;Max_cycle;Signal;HPM_P1;HPM_P2
2023/02/26 00:00:58;;;;;;;;;9.25;9.25;;;;;6.73;48.83;101076.38;6278896;22;45284;-60
2023/02/26 00:03:23;;;;;;;;;10.75;7.00;;;;;6.73;48.81;101081.63;6226808;22;45269;-60
2023/02/26 00:05:49;;;;;;;;;6.25;3.00;;;;;6.71;48.67;101089.44;6279264;22;45226;-61
2023/02/26 00:08:14;;;;;;;;;6.25;5.50;;;;;6.68;48.98;101086.81;6279220;22;45209;-60
2023/02/26 00:10:40;;;;;;;;;8.50;6.75;;;;;6.66;48.75;101089.41;6279334;22;45218;-60
2023/02/26 00:13:05;;;;;;;;;9.50;5.25;;;;;6.63;48.68;101084.16;6278717;22;45095;-60
2023/02/26 00:15:31;;;;;;;;;6.75;5.00;;;;;6.60;48.63;101084.16;6278500;22;45188;-61
2023/02/26 00:18:05;;;;;;;;;7.50;7.50;;;;;6.57;48.71;101080.66;6278707;22;45151;-60
2023/02/26 00:20:31;;;;;;;;;6.25;6.25;;;;;6.55;48.92;101090.19;6278625;22;45112;-61
2023/02/26 00:22:57;;;;;;;;;7.50;7.50;;;;;6.50;48.74;101095.38;6279538;22;45383;-62
2023/02/26 00:25:23;;;;;;;;;8.00;5.75;;;;;6.50;48.51;101105.81;6278554;22;45457;-62
2023/02/26 00:27:48;;;;;;;;;8.25;8.25;;;;;6.48;48.81;101105.81;6278555;22;46048;-61
2023/02/26 00:30:14;;;;;;;;;7.00;5.75;;;;;6.45;48.62;101113.63;6278434;22;45281;-62
2023/02/26 00:32:40;;;;;;;;;9.25;7.75;;;;;6.40;48.56;101110.09;6279416;22;45326;-61
2023/02/26 00:35:12;;;;;;;;;7.00;6.50;;;;;6.39;48.65;101120.50;6278738;22;45289;-62
2023/02/26 00:37:50;;;;;;;;;6.75;5.50;;;;;6.35;48.73;101122.22;6277770;22;45420;-62
2023/02/26 00:40:37;;;;;;;;;6.25;5.50;;;;;6.32;48.76;101135.25;6251329;22;45359;-62
2023/02/26 00:43:08;;;;;;;;;9.00;5.00;;;;;6.29;48.69;101135.19;6251293;22;45411;-62
2023/02/26 00:45:34;;;;;;;;;5.00;5.00;;;;;6.27;48.65;101142.16;6251068;22;45226;-62
2023/02/26 00:48:06;;;;;;;;;10.00;7.25;;;;;6.23;48.77;101141.25;6277505;22;46369;-62
2023/02/26 00:50:32;;;;;;;;;8.50;7.00;;;;;6.21;48.56;101142.09;6279172;22;45244;-62
2023/02/26 00:53:07;;;;;;;;;13.25;7.50;;;;;6.20;48.52;101141.25;6279039;22;45165;-62
2023/02/26 00:55:32;;;;;;;;;11.25;8.00;;;;;6.18;49.21;101150.78;6279212;22;45252;-60
2023/02/26 00:57:57;;;;;;;;;8.00;5.50;;;;;6.16;48.61;101144.66;6278435;22;45343;-62
2023/02/26 01:00:23;;;;;;;;;7.75;5.00;;;;;6.13;48.51;101136.81;6278190;22;45261;-62
2023/02/26 01:02:49;;;;;;;;;10.00;8.50;;;;;6.10;48.47;101145.47;6251649;22;45249;-62
2023/02/26 01:05:17;;;;;;;;;9.25;8.25;;;;;6.10;48.45;101137.66;6278931;22;46114;-62
2023/02/26 01:07:57;;;;;;;;;7.25;7.00;;;;;6.11;48.61;101138.50;6278624;22;45422;-62
2023/02/26 01:10:23;;;;;;;;;8.25;8.25;;;;;6.08;48.63;101138.50;6278741;22;45150;-62
2023/02/26 01:12:49;;;;;;;;;8.25;5.75;;;;;6.05;48.47;101141.94;6278218;22;45498;-62
2023/02/26 01:15:15;;;;;;;;;14.00;9.00;;;;;6.04;48.26;101145.41;6278347;22;45263;-62
2023/02/26 01:18:19;;;;;;;;;7.00;7.00;;;;;6.02;48.53;101141.91;6277807;22;46820;-62
2023/02/26 01:20:53;;;;;;;;;9.75;7.75;;;;;5.98;48.63;101147.91;6269935;22;45450;-62
2023/02/26 01:23:25;;;;;;;;;8.50;7.50;;;;;5.94;48.49;101149.63;6278502;22;45242;-62
2023/02/26 01:25:57;;;;;;;;;9.00;9.00;;;;;5.91;48.46;101148.69;6251031;22;45582;-62
2023/02/26 01:28:23;;;;;;;;;10.25;7.75;;;;;5.89;48.34;101145.19;6278150;22;46658;-62
2023/02/26 01:30:51;;;;;;;;;6.75;5.75;;;;;5.85;48.52;101152.13;6277914;22;45304;-62
2023/02/26 01:33:23;;;;;;;;;9.25;7.75;;;;;5.85;48.03;101144.28;6278508;22;45170;-62
2023/02/26 01:35:52;;;;;;;;;7.50;7.00;;;;;5.80;48.58;101145.97;6278984;22;45159;-62
2023/02/26 01:38:33;;;;;;;;;9.00;8.75;;;;;5.80;48.67;101156.41;6251137;22;45972;-61
2023/02/26 01:41:32;;;;;;;;;8.25;6.00;;;;;5.77;48.57;101143.31;6278773;22;45300;-62
2023/02/26 01:44:30;;;;;;;;;5.75;5.75;;;;;5.75;48.55;101145.03;6279058;22;45126;-62
2023/02/26 01:47:21;;;;;;;;;10.25;8.75;;;;;5.71;48.54;101151.97;6277890;22;45379;-60
2023/02/26 01:49:47;;;;;;;;;3.75;3.50;;;;;5.70;48.43;101156.28;6234985;22;47188;-60
2023/02/26 01:52:30;;;;;;;;;8.25;5.25;;;;;5.68;48.43;101155.38;6278792;22;45145;-60
2023/02/26 01:54:56;;;;;;;;;8.25;6.50;;;;;5.63;48.49;101149.22;6279048;22;45171;-62
2023/02/26 01:57:21;;;;;;;;;8.00;5.50;;;;;5.65;48.21;101170.13;6278117;22;45134;-62
2023/02/26 01:59:50;;;;;;;;;8.75;8.00;;;;;5.63;48.37;101158.78;6278674;22;45267;-62
2023/02/26 02:02:19;;;;;;;;;6.75;5.25;;;;;5.58;48.21;101160.47;6278483;22;45310;-62
2023/02/26 02:04:46;;;;;;;;;12.00;5.50;;;;;5.59;48.40;101164.84;6278517;22;45157;-62
2023/02/26 02:07:12;;;;;;;;;6.00;5.25;;;;;5.56;48.45;101167.38;6278195;22;45139;-62
2023/02/26 02:09:38;;;;;;;;;8.00;4.75;;;;;5.53;48.38;101171.72;6278539;22;46114;-62
2023/02/26 02:12:07;;;;;;;;;6.75;4.25;;;;;5.52;48.48;101176.91;6278543;22;45451;-62
2023/02/26 02:14:50;;;;;;;;;4.75;4.75;;;;;5.49;48.41;101169.03;6278852;22;45323;-62
2023/02/26 02:17:54;;;;;;;;;5.00;5.00;;;;;5.47;48.59;101178.56;6277910;22;45198;-64
2023/02/26 02:20:44;;;;;;;;;4.00;4.00;;;;;5.44;48.36;101168.09;6278503;22;46215;-62
2023/02/26 02:23:37;;;;;;;;;9.25;6.00;;;;;5.42;48.24;101175.91;6278612;22;45172;-62
2023/02/26 02:26:40;;;;;;;;;7.00;7.00;;;;;5.40;48.25;101168.94;6278550;22;45292;-62
2023/02/26 02:29:33;;;;;;;;;7.25;7.00;;;;;5.38;48.33;101163.66;6278229;22;45316;-62
2023/02/26 02:32:15;;;;;;;;;7.50;7.00;;;;;5.38;48.42;101168.88;6278236;22;45195;-62
2023/02/26 02:34:47;;;;;;;;;5.00;5.00;;;;;5.34;48.49;101169.69;6278250;22;45163;-61
2023/02/26 02:37:40;;;;;;;;;6.25;2.75;;;;;5.34;48.17;101181.00;6278557;22;45236;-62
2023/02/26 02:40:21;;;;;;;;;7.50;4.50;;;;;5.33;48.36;101183.59;6277979;22;45320;-62
2023/02/26 02:43:19;;;;;;;;;7.00;7.00;;;;;5.31;48.30;101185.31;6250586;22;48441;-62
2023/02/26 02:45:47;;;;;;;;;5.00;4.50;;;;;5.24;48.17;101176.50;6259341;22;45340;-63
2023/02/26 02:48:21;;;;;;;;;4.75;4.75;;;;;5.25;48.36;101185.22;6278154;22;45296;-60
2023/02/26 02:50:58;;;;;;;;;6.25;6.00;;;;;5.23;48.36;101177.34;6278349;22;45185;-60
2023/02/26 02:53:32;;;;;;;;;4.00;3.50;;;;;5.20;48.30;101186.00;6278189;22;46331;-60
2023/02/26 02:56:05;;;;;;;;;9.75;8.75;;;;;5.19;48.37;101181.69;6278166;22;45239;-60
2023/02/26 02:58:38;;;;;;;;;8.00;7.00;;;;;5.16;48.44;101188.56;6277933;22;45328;-60
2023/02/26 03:01:08;;;;;;;;;7.00;6.00;;;;;5.16;48.09;101198.97;6278515;22;45297;-60
2023/02/26 03:03:52;;;;;;;;;3.75;3.75;;;;;5.13;48.51;101188.50;6279552;22;45299;-60
2023/02/26 03:06:17;;;;;;;;;5.50;4.75;;;;;5.09;48.29;101190.19;6279557;22;45342;-60
2023/02/26 03:08:46;;;;;;;;;5.25;3.75;;;;;5.07;48.10;101193.63;6279165;22;45237;-60
2023/02/26 03:11:11;;;;;;;;;7.00;5.25;;;;;5.05;48.35;101194.47;6279093;22;45419;-60
2023/02/26 03:13:39;;;;;;;;;7.75;4.75;;;;;5.05;48.36;101207.47;6251470;22;45527;-60
2023/02/26 03:16:38;;;;;;;;;8.75;6.25;;;;;5.04;48.07;101205.75;6279219;22;45356;-60
2023/02/26 03:19:28;;;;;;;;;5.50;5.50;;;;;5.00;48.31;101201.31;6278919;22;45167;-60
2023/02/26 03:22:10;;;;;;;;;7.75;4.75;;;;;4.99;48.26;101207.41;6279539;22;45158;-60
2023/02/26 03:25:01;;;;;;;;;1.25;1.25;;;;;4.96;48.37;101206.47;6279573;22;46018;-60
2023/02/26 03:27:41;;;;;;;;;4.50;4.25;;;;;4.95;48.33;101212.53;6278914;22;45266;-60
2023/02/26 03:30:48;;;;;;;;;4.75;4.00;;;;;4.93;48.23;101206.41;6278763;22;45446;-60
2023/02/26 03:33:22;;;;;;;;;7.75;7.00;;;;;4.91;48.08;101213.34;6124446;23;45495;-60
2023/02/26 03:35:50;;;;;;;;;4.00;2.75;;;;;4.90;48.00;101208.97;6255716;22;45264;-60
2023/02/26 03:38:24;;;;;;;;;3.50;3.50;;;;;4.88;48.40;101215.03;6278590;22;45435;-60
2023/02/26 03:41:02;;;;;;;;;7.25;6.25;;;;;4.86;48.30;101216.72;6252155;22;45359;-60
2023/02/26 03:43:34;;;;;;;;;6.50;3.75;;;;;4.83;48.38;101215.78;6251543;22;45299;-60
2023/02/26 03:46:06;;;;;;;;;6.25;3.00;;;;;4.74;48.47;101198.28;6279258;22;45369;-60
2023/02/26 03:48:34;;;;;;;;;7.00;5.50;;;;;4.76;48.34;101206.16;6279092;22;45229;-60
2023/02/26 03:51:04;;;;;;;;;4.50;2.50;;;;;4.78;48.22;101223.56;6279023;22;45344;-60
2023/02/26 03:53:46;;;;;;;;;5.50;5.50;;;;;4.69;48.43;101215.56;6278809;22;45402;-60
2023/02/26 03:56:28;;;;;;;;;9.75;6.50;;;;;4.75;48.19;101231.28;6279235;22;45369;-60
2023/02/26 03:58:54;;;;;;;;;5.50;4.00;;;;;4.71;48.30;101229.50;6278897;22;45108;-60
2023/02/26 04:01:24;;;;;;;;;3.50;3.50;;;;;4.71;48.47;101230.34;6276941;22;45168;-60
2023/02/26 04:03:58;;;;;;;;;7.00;3.50;;;;;4.70;48.38;101228.63;6279362;22;45247;-61
2023/02/26 04:06:25;;;;;;;;;5.00;3.50;;;;;4.68;48.59;101232.06;6279305;22;45533;-60
2023/02/26 04:08:51;;;;;;;;;7.25;4.00;;;;;4.67;48.54;101238.09;6278588;22;45111;-60
2023/02/26 04:11:21;;;;;;;;;5.00;3.25;;;;;4.66;48.33;101238.94;6278878;22;45244;-61
2023/02/26 04:13:47;;;;;;;;;7.25;5.50;;;;;4.66;48.33;101241.56;6278673;22;45236;-61
2023/02/26 04:16:14;;;;;;;;;7.25;5.75;;;;;4.63;48.15;101247.59;6279118;22;45271;-60
2023/02/26 04:18:40;;;;;;;;;4.50;4.00;;;;;4.63;48.60;101244.09;6250863;22;45289;-60
2023/02/26 04:21:06;;;;;;;;;4.00;4.00;;;;;4.61;48.12;101251.00;6278965;22;45223;-60
2023/02/26 04:23:31;;;;;;;;;7.75;4.00;;;;;4.59;48.20;101250.09;6279486;22;45204;-60
2023/02/26 04:25:56;;;;;;;;;7.75;6.75;;;;;4.61;48.14;101259.69;6251589;22;47097;-61
2023/02/26 04:28:22;;;;;;;;;6.25;3.00;;;;;4.62;48.13;101271.84;6250742;22;45165;-61
2023/02/26 04:30:47;;;;;;;;;9.00;5.50;;;;;4.61;48.10;101256.22;6279004;22;45250;-60
2023/02/26 04:33:14;;;;;;;;;7.00;6.00;;;;;4.60;48.45;101264.88;6276837;22;45437;-61
2023/02/26 04:35:40;;;;;;;;;3.00;2.00;;;;;4.60;48.17;101260.53;6277983;22;46027;-60
2023/02/26 04:38:05;;;;;;;;;4.25;3.25;;;;;4.60;48.25;101259.66;6278404;22;45269;-60
2023/02/26 04:40:30;;;;;;;;;7.25;6.00;;;;;4.58;48.28;101263.94;6279332;22;45209;-60
2023/02/26 04:42:56;;;;;;;;;6.00;5.25;;;;;4.59;48.40;101271.81;6278957;22;45220;-60
2023/02/26 04:45:21;;;;;;;;;6.25;4.25;;;;;4.58;48.16;101271.75;6251238;22;46974;-61
2023/02/26 04:47:47;;;;;;;;;4.00;3.75;;;;;4.59;48.05;101281.34;6278433;22;45260;-60
2023/02/26 04:50:13;;;;;;;;;5.00;3.50;;;;;4.58;48.09;101280.47;6279443;22;45185;-61
2023/02/26 04:52:38;;;;;;;;;5.75;4.00;;;;;4.55;48.24;101281.28;6279149;22;45266;-60
2023/02/26 04:55:06;;;;;;;;;8.25;4.50;;;;;4.57;48.44;101289.13;6279139;22;45253;-60
2023/02/26 04:57:31;;;;;;;;;5.00;3.75;;;;;4.56;48.49;101288.22;6278932;22;45225;-60
2023/02/26 04:59:57;;;;;;;;;3.25;2.75;;;;;4.51;48.29;101278.59;6279199;22;45318;-60
2023/02/26 05:02:22;;;;;;;;;6.00;6.00;;;;;4.54;48.31;101284.72;6278762;22;45160;-60
2023/02/26 05:04:47;;;;;;;;;2.75;2.00;;;;;4.53;48.39;101277.78;6279216;22;45170;-61
2023/02/26 05:07:12;;;;;;;;;6.75;4.00;;;;;4.53;48.16;101282.97;6250551;22;45141;-60
2023/02/26 05:09:38;;;;;;;;;3.00;2.50;;;;;4.52;48.51;101290.75;6279289;22;45233;-60
2023/02/26 05:12:03;;;;;;;;;2.50;2.50;;;;;4.49;47.99;101281.16;6278767;22;45225;-61
2023/02/26 05:14:29;;;;;;;;;4.00;4.00;;;;;4.50;48.39;101285.53;6251732;22;46412;-61
2023/02/26 05:16:54;;;;;;;;;2.75;2.50;;;;;4.48;48.35;101279.41;6278507;22;45304;-61
2023/02/26 05:19:19;;;;;;;;;3.00;3.00;;;;;4.48;48.37;101287.22;6278701;22;45446;-61
2023/02/26 05:21:44;;;;;;;;;6.75;6.50;;;;;4.45;48.28;101279.31;6278890;22;45340;-61
2023/02/26 05:24:10;;;;;;;;;4.00;4.00;;;;;4.42;48.09;101281.88;6278897;22;45350;-61
2023/02/26 05:26:35;;;;;;;;;6.00;4.00;;;;;4.41;48.39;101284.47;6251570;22;45275;-61
2023/02/26 05:29:01;;;;;;;;;6.75;3.25;;;;;4.43;48.21;101290.56;6279065;22;45392;-61
2023/02/26 05:31:27;;;;;;;;;6.75;4.00;;;;;4.42;48.55;101275.81;6278129;22;45326;-61
2023/02/26 05:33:52;;;;;;;;;3.00;2.50;;;;;4.41;48.32;101289.69;6278489;22;46072;-61
2023/02/26 05:36:18;;;;;;;;;6.50;3.50;;;;;4.42;48.23;101288.84;6279084;22;45241;-61
2023/02/26 05:38:43;;;;;;;;;2.75;2.75;;;;;4.40;48.32;101286.16;6278388;22;45319;-61
2023/02/26 05:41:08;;;;;;;;;6.00;6.00;;;;;4.38;48.35;101283.53;6250849;22;45680;-62
2023/02/26 05:43:34;;;;;;;;;6.25;5.00;;;;;4.38;48.78;101295.69;6278703;22;46435;-61
2023/02/26 05:46:00;;;;;;;;;6.50;4.50;;;;;4.37;48.32;101289.59;6278176;22;45190;-61
2023/02/26 05:48:25;;;;;;;;;4.00;3.25;;;;;4.36;48.26;101292.19;6277026;22;45176;-61
2023/02/26 05:50:51;;;;;;;;;7.25;6.50;;;;;4.34;48.40;101283.44;6279013;22;45490;-61
2023/02/26 05:53:16;;;;;;;;;2.25;2.25;;;;;4.34;48.70;101292.16;6251541;22;45213;-61
2023/02/26 05:55:42;;;;;;;;;4.50;4.50;;;;;4.36;48.58;101302.59;6278598;22;45189;-61
2023/02/26 05:58:07;;;;;;;;;6.50;6.25;;;;;4.35;48.64;101306.03;6278629;22;45137;-61
2023/02/26 06:00:33;;;;;;;;;7.25;3.25;;;;;4.33;48.38;101295.59;6278540;22;45487;-61
2023/02/26 06:02:58;;;;;;;;;3.75;3.25;;;;;4.32;48.31;101304.25;6250951;22;47109;-61
2023/02/26 06:05:23;;;;;;;;;7.75;4.00;;;;;4.33;48.32;101299.94;6278805;22;45268;-61
2023/02/26 06:07:49;;;;;;;;;8.25;3.50;;;;;4.32;48.29;101308.56;6278621;22;45163;-61
2023/02/26 06:10:14;;;;;;;;;6.00;3.00;;;;;4.30;48.68;101305.06;6278647;22;45181;-61
2023/02/26 06:12:39;;;;;;;;;4.00;4.00;;;;;4.29;48.62;101313.69;6278296;22;45308;-61
2023/02/26 06:15:07;;;;;;;;;4.50;4.00;;;;;4.28;48.17;101311.97;6278408;22;45230;-61
2023/02/26 06:17:32;;;;;;;;;11.50;4.25;;;;;4.26;48.51;101304.13;6250675;22;45249;-61
2023/02/26 06:19:58;;;;;;;;;6.00;4.00;;;;;4.21;48.67;101293.63;6278755;22;45264;-61
2023/02/26 06:22:24;;;;;;;;;0.00;0.00;;;;;4.23;48.59;101304.94;6278889;22;45312;-61
2023/02/26 06:24:49;;;;;;;;;4.50;3.00;;;;;4.22;48.64;101304.91;6278632;22;45256;-61
2023/02/26 06:27:14;;;;;;;;;8.00;8.00;;;;;4.19;48.56;101310.06;6278581;22;45251;-61
2023/02/26 06:29:40;;;;;;;;;5.00;3.50;;;;;4.20;48.67;101315.28;6278723;22;45581;-61
2023/02/26 06:32:05;;;;;;;;;6.50;6.50;;;;;4.19;48.47;101320.47;6278278;22;46342;-61
2023/02/26 06:34:31;;;;;;;;;7.25;4.00;;;;;4.15;48.78;101319.50;6278228;22;45209;-61
2023/02/26 06:36:57;;;;;;;;;5.00;4.00;;;;;4.16;48.63;101326.44;6278378;22;45403;-61
2023/02/26 06:39:22;;;;;;;;;9.50;8.25;;;;;4.15;48.75;101329.03;6278491;22;45240;-61
2023/02/26 06:41:47;;;;;;;;;7.75;6.75;;;;;4.15;48.49;101339.44;6278351;22;45724;-61
2023/02/26 06:44:13;;;;;;;;;8.25;6.00;;;;;4.11;48.45;101335.88;6278513;22;45098;-61
2023/02/26 06:46:38;;;;;;;;;8.50;7.00;;;;;4.13;48.98;101338.53;6278307;22;45107;-61
2023/02/26 06:49:04;;;;;;;;;11.00;6.00;;;;;4.12;48.49;101348.03;6277806;22;45522;-61
2023/02/26 06:51:29;;;;;;;;;7.75;5.50;;;;;4.11;48.91;101353.22;6250438;22;47222;-61
2023/02/26 06:53:55;;;;;;;;;12.25;7.50;;;;;4.11;48.96;101355.81;6277302;22;45391;-61
2023/02/26 06:56:21;;;;;;;;;7.00;5.00;;;;;4.11;49.05;101361.03;6278310;22;45430;-61
2023/02/26 06:58:46;;;;;;;;;6.50;5.00;;;;;4.10;48.44;101356.66;6276959;22;45474;-60
2023/02/26 07:01:11;;;;;;;;;8.50;7.25;;;;;4.09;48.97;101357.50;6277954;22;46001;-61
2023/02/26 07:03:37;;;;;;;;;6.25;5.00;;;;;4.09;49.17;101366.19;6277489;22;45304;-61
2023/02/26 07:06:02;;;;;;;;;8.25;8.25;;;;;4.07;48.67;101365.28;6278013;22;45347;-61
2023/02/26 07:08:28;;;;;;;;;9.25;6.50;;;;;4.05;48.93;101372.16;6277091;22;45337;-60
2023/02/26 07:10:53;;;;;;;;;6.50;6.25;;;;;4.04;48.76;101378.22;6250185;22;46370;-61
2023/02/26 07:13:18;;;;;;;;;7.25;5.50;;;;;4.04;48.81;101378.22;6278045;22;45178;-61
2023/02/26 07:15:44;;;;;;;;;7.25;5.00;;;;;4.03;48.97;101389.47;6278107;22;45412;-61
2023/02/26 07:18:09;;;;;;;;;4.00;4.00;;;;;4.05;48.81;101385.16;6277350;22;45316;-61
2023/02/26 07:20:34;;;;;;;;;6.25;4.00;;;;;4.03;49.06;101390.34;6277935;22;46632;-61
2023/02/26 07:23:00;;;;;;;;;6.00;5.00;;;;;3.95;48.68;101384.09;6278026;22;45103;-61
2023/02/26 07:25:25;;;;;;;;;6.50;6.50;;;;;4.03;49.27;101392.06;6276730;22;45170;-59
2023/02/26 07:27:51;;;;;;;;;4.00;4.00;;;;;4.05;48.90;101400.78;6277499;22;45189;-59
2023/02/26 07:30:17;;;;;;;;;10.50;6.00;;;;;4.06;49.11;101394.72;6277163;22;45960;-59
2023/02/26 07:32:42;;;;;;;;;6.50;6.50;;;;;4.05;49.27;101399.06;6277913;22;45154;-60
2023/02/26 07:35:08;;;;;;;;;8.25;7.00;;;;;4.04;48.92;101402.50;6278109;22;45419;-60
2023/02/26 07:37:34;;;;;;;;;10.75;7.75;;;;;4.08;48.82;101406.06;6249989;22;45466;-59
2023/02/26 07:39:59;;;;;;;;;6.00;5.50;;;;;4.04;48.90;101396.44;6277646;22;45939;-59
2023/02/26 07:42:24;;;;;;;;;8.50;6.75;;;;;4.08;48.91;101406.06;6250271;22;45434;-60
2023/02/26 07:44:50;;;;;;;;;7.50;6.00;;;;;4.10;49.57;101401.78;6277846;22;45234;-60
2023/02/26 07:47:15;;;;;;;;;7.50;4.00;;;;;4.13;49.50;101404.44;6277871;22;45597;-60
2023/02/26 07:49:40;;;;;;;;;6.25;4.00;;;;;4.19;49.60;101406.31;6279508;22;45359;-60
2023/02/26 07:52:06;;;;;;;;;8.50;8.50;;;;;4.31;49.98;101408.31;6279393;22;45277;-60
2023/02/26 07:54:35;;;;;;;;;11.25;6.00;;;;;4.44;50.39;101410.34;6251616;22;45205;-61
2023/02/26 07:57:01;;;;;;;;;11.75;9.00;;;;;4.57;50.82;101414.06;6278839;22;45432;-62
2023/02/26 07:59:27;;;;;;;;;7.50;6.00;;;;;4.65;50.98;101412.50;6279272;22;45248;-61
2023/02/26 08:01:52;;;;;;;;;7.00;6.50;;;;;4.75;50.48;101412.72;6279258;22;45151;-61
2023/02/26 08:04:18;;;;;;;;;11.75;9.75;;;;;4.82;50.67;101428.50;6251839;22;45268;-61
2023/02/26 08:06:43;;;;;;;;;9.00;8.75;;;;;4.92;51.15;101418.25;6279177;22;45171;-61
2023/02/26 08:09:08;;;;;;;;;9.25;7.25;;;;;5.04;51.11;101415.88;6278604;22;45140;-60
2023/02/26 08:11:38;;;;;;;;;10.50;7.50;;;;;5.11;51.08;101427.31;6279120;22;45134;-61
2023/02/26 08:14:04;;;;;;;;;9.50;5.75;;;;;5.20;51.27;101425.75;6278966;22;45275;-60
2023/02/26 08:16:29;;;;;;;;;5.25;5.00;;;;;5.27;51.29;101426.75;6278886;22;45327;-62
2023/02/26 08:18:54;;;;;;;;;4.25;4.25;;;;;5.37;51.43;101426.06;6276657;22;45306;-64
2023/02/26 08:21:20;;;;;;;;;6.00;6.00;;;;;5.49;51.50;101425.41;6278839;22;45122;-66
2023/02/26 08:23:45;;;;;;;;;7.00;7.00;;;;;5.59;51.52;101434.28;6251287;22;45193;-64
2023/02/26 08:26:12;;;;;;;;;8.25;3.50;;;;;5.68;51.60;101431.81;6278667;22;45260;-64
2023/02/26 08:28:39;;;;;;;;;9.75;9.75;;;;;5.77;51.53;101425.88;6278660;22;45242;-62
2023/02/26 08:31:05;;;;;;;;;7.75;7.50;;;;;5.83;51.60;101433.78;6250380;22;45202;-63
2023/02/26 08:33:31;;;;;;;;;10.00;6.75;;;;;5.86;51.37;101436.47;6278463;22;45265;-59
2023/02/26 08:35:57;;;;;;;;;8.25;6.50;;;;;5.93;51.77;101437.44;6279167;22;45367;-59
2023/02/26 08:38:24;;;;;;;;;7.25;5.25;;;;;5.98;51.74;101433.19;6278269;22;45390;-63
2023/02/26 08:40:51;;;;;;;;;8.75;6.00;;;;;6.10;51.76;101429.94;6251269;22;45193;-65
2023/02/26 08:43:17;;;;;;;;;14.75;8.00;;;;;6.24;51.79;101430.13;6279085;22;45177;-63
2023/02/26 08:45:43;;;;;;;;;9.50;7.25;;;;;6.31;51.85;101442.44;6278438;22;45901;-62
2023/02/26 08:48:08;;;;;;;;;6.25;6.25;;;;;6.44;52.05;101438.25;6278670;22;46304;-62
2023/02/26 08:50:34;;;;;;;;;7.50;7.50;;;;;6.46;51.89;101452.19;6279133;22;45142;-61
2023/02/26 08:52:59;;;;;;;;;9.75;8.25;;;;;6.40;51.72;101433.84;6278752;22;45188;-62
2023/02/26 08:55:24;;;;;;;;;7.00;6.00;;;;;6.39;51.68;101458.19;6279282;22;45545;-63
2023/02/26 08:57:50;;;;;;;;;5.50;4.25;;;;;6.34;51.41;101460.72;6278612;22;45371;-62
2023/02/26 09:00:17;;;;;;;;;7.50;4.25;;;;;6.30;51.60;101456.31;6278944;22;45710;-62
2023/02/26 09:02:42;;;;;;;;;10.00;5.00;;;;;6.29;51.44;101471.94;6278636;22;45301;-63
2023/02/26 09:05:08;;;;;;;;;6.50;6.50;;;;;6.20;51.26;101457.06;6278681;22;45271;-62
2023/02/26 09:07:34;;;;;;;;;13.00;9.00;;;;;6.29;51.23;101472.84;6278181;22;47048;-62
2023/02/26 09:09:59;;;;;;;;;7.00;7.00;;;;;6.28;51.02;101473.69;6279020;22;45209;-62
2023/02/26 09:12:25;;;;;;;;;7.75;7.00;;;;;6.32;50.94;101474.63;6278879;22;45429;-62
2023/02/26 09:14:50;;;;;;;;;9.25;7.00;;;;;6.36;51.00;101478.16;6278792;22;45240;-62
2023/02/26 09:17:16;;;;;;;;;5.00;5.00;;;;;6.38;51.10;101476.41;6278607;22;45233;-62
2023/02/26 09:19:41;;;;;;;;;4.00;4.00;;;;;6.39;50.84;101472.97;6278378;22;45217;-62
2023/02/26 09:22:06;;;;;;;;;8.25;5.75;;;;;6.46;50.77;101488.75;6278993;22;45226;-62
2023/02/26 09:24:32;;;;;;;;;7.00;5.00;;;;;6.49;50.82;101488.81;6279089;22;45134;-62
2023/02/26 09:26:57;;;;;;;;;6.75;5.00;;;;;6.57;50.75;101493.25;6278565;22;45562;-62
2023/02/26 09:29:23;;;;;;;;;6.75;2.75;;;;;6.64;50.50;101487.25;6279338;22;45244;-63
2023/02/26 09:31:48;;;;;;;;;3.50;3.50;;;;;6.66;50.24;101491.63;6278544;22;45272;-62
2023/02/26 09:34:13;;;;;;;;;3.25;3.00;;;;;6.74;50.49;101499.59;6251239;22;45657;-63
2023/02/26 09:36:39;;;;;;;;;5.25;5.00;;;;;6.85;50.28;101499.72;6279023;22;45906;-63
2023/02/26 09:39:07;;;;;;;;;3.75;3.00;;;;;6.93;50.42;101494.59;6278704;22;45272;-63
2023/02/26 09:41:37;;;;;;;;;4.50;4.50;;;;;7.03;50.05;101508.66;6278108;22;45396;-63
2023/02/26 09:44:18;;;;;;;;;5.00;2.75;;;;;7.10;50.27;101500.06;6249687;22;45622;-63
2023/02/26 09:46:50;;;;;;;;;5.00;4.00;;;;;7.19;49.99;101496.69;6276661;22;45932;-64
2023/02/26 09:49:28;;;;;;;;;4.50;4.00;;;;;7.26;50.09;101507.22;6278877;22;45264;-62
2023/02/26 09:52:00;;;;;;;;;3.50;3.00;;;;;7.34;50.13;101509.91;6276719;22;45249;-62
2023/02/26 09:54:31;;;;;;;;;4.00;4.00;;;;;7.39;49.92;101502.13;6277428;22;45360;-63
2023/02/26 09:56:58;;;;;;;;;3.75;2.25;;;;;7.45;49.78;101508.31;6277730;22;45175;-63
2023/02/26 09:59:28;;;;;;;;;5.50;4.25;;;;;7.57;49.69;101514.53;6278771;22;45353;-63
2023/02/26 10:02:19;;;;;;;;;3.00;2.00;;;;;7.68;49.83;101506.81;6277849;22;45241;-63
2023/02/26 10:05:16;;;;;;;;;4.75;3.00;;;;;7.78;49.54;101512.13;6278980;22;45250;-63
2023/02/26 10:07:54;;;;;;;;;6.00;4.25;;;;;7.90;49.51;101511.38;6277714;22;47075;-63
2023/02/26 10:10:48;;;;;;;;;3.75;3.00;;;;;8.02;49.16;101526.31;6277944;22;45268;-63
2023/02/26 10:13:28;;;;;;;;;1.25;1.25;;;;;8.14;49.13;101528.16;6278846;22;45309;-62
2023/02/26 10:16:00;;;;;;;;;1.00;1.00;;;;;8.26;49.18;101540.47;6277998;22;45400;-62
2023/02/26 10:18:31;;;;;;;;;6.00;4.00;;;;;8.36;48.85;101539.66;6277555;22;45335;-62
2023/02/26 10:21:04;;;;;;;;;4.00;3.00;;;;;8.49;48.83;101537.19;6278710;22;45323;-62
2023/02/26 10:23:40;;;;;;;;;12.75;7.75;;;;;8.57;48.72;101541.59;6277961;22;45330;-63
2023/02/26 10:26:13;;;;;;;;;3.00;3.00;;;;;8.66;48.31;101547.78;6278019;22;45229;-62
2023/02/26 10:29:06;;;;;;;;;3.50;2.00;;;;;8.75;48.56;101533.00;6277751;22;45284;-61
2023/02/26 10:31:39;;;;;;;;;3.00;2.00;;;;;8.83;48.46;101542.63;6249777;22;45772;-61
2023/02/26 10:34:20;;;;;;;;;2.50;2.00;;;;;8.91;48.05;101552.31;6278596;22;45322;-62
2023/02/26 10:48:41;;;;;;;;;3.75;3.00;;;;;9.38;47.13;101563.91;5048971;28;45306;-61
2023/02/26 10:51:14;;;;;;;;;3.00;3.00;;;;;9.44;47.13;101569.16;5024314;28;45584;-62
2023/02/26 10:53:45;;;;;;;;;2.00;2.00;;;;;9.50;46.96;101572.69;5004504;28;45248;-62
2023/02/26 10:56:18;;;;;;;;;4.00;4.00;;;;;9.50;46.92;101549.06;5014532;28;45352;-62
2023/02/26 10:58:44;;;;;;;;;3.00;2.00;;;;;9.51;46.75;101571.78;5025745;28;45481;-63
2023/02/26 11:01:19;;;;;;;;;3.00;2.00;;;;;9.44;46.53;101566.53;5003754;28;45443;-63
2023/02/26 11:03:48;;;;;;;;;3.00;2.50;;;;;9.47;46.60;101570.03;5024080;27;45343;-61
2023/02/26 11:06:23;;;;;;;;;3.00;3.00;;;;;9.48;46.50;101567.41;5012797;28;45446;-62
2023/02/26 11:08:54;;;;;;;;;3.25;3.25;;;;;9.53;46.24;101565.69;5016140;28;45277;-62
2023/02/26 11:11:38;;;;;;;;;6.75;5.25;;;;;9.58;46.46;101565.69;5018919;28;45486;-61
2023/02/26 11:14:04;;;;;;;;;2.00;2.00;;;;;9.65;46.09;101550.84;5005538;28;45339;-61
2023/02/26 11:16:31;;;;;;;;;3.50;2.25;;;;;9.68;46.28;101556.97;5020488;28;45317;-60
2023/02/26 11:18:59;;;;;;;;;1.75;1.75;;;;;9.81;46.26;101560.53;5016395;28;45594;-62
2023/02/26 11:21:33;;;;;;;;;3.00;2.00;;;;;9.89;46.00;101571.03;5012400;28;45232;-61
2023/02/26 11:24:07;;;;;;;;;2.00;2.00;;;;;9.99;46.03;101554.41;5011217;28;45439;-60
2023/02/26 11:26:38;;;;;;;;;2.00;2.00;;;;;10.09;46.14;101560.56;5019361;28;45273;-60
2023/02/26 11:29:04;;;;;;;;;2.00;2.00;;;;;10.17;46.14;101565.81;5018450;28;45554;-61
2023/02/26 11:31:31;;;;;;;;;1.75;1.75;;;;;10.23;46.17;101552.69;5014316;28;45329;-61
2023/02/26 11:34:07;;;;;;;;;3.25;3.25;;;;;10.30;45.70;101557.09;5014541;28;45437;-61
2023/02/26 11:36:37;;;;;;;;;3.00;3.00;;;;;10.40;45.71;101553.59;5010665;28;45442;-61
2023/02/26 11:39:22;;;;;;;;;4.00;3.00;;;;;10.49;45.76;101568.50;5010769;28;46471;-61
2023/02/26 11:41:50;;;;;;;;;4.00;3.75;;;;;10.57;45.71;101558.81;5012233;27;45514;-61
2023/02/26 11:44:27;;;;;;;;;4.00;2.25;;;;;10.66;45.58;101552.69;5012559;27;45226;-61
2023/02/26 11:47:00;;;;;;;;;2.75;2.75;;;;;10.71;45.68;101553.56;5009601;27;45550;-61
2023/02/26 11:49:28;;;;;;;;;2.00;2.00;;;;;10.82;45.77;101542.16;4996896;27;46523;-61
2023/02/26 11:52:05;;;;;;;;;4.25;3.25;;;;;10.90;45.59;101556.16;4997542;28;45327;-61
2023/02/26 11:54:34;;;;;;;;;2.25;2.25;;;;;10.98;45.61;101549.13;4998863;28;45392;-61
2023/02/26 11:57:02;;;;;;;;;3.75;3.00;;;;;10.99;45.44;101542.09;4998913;28;45317;-61